Time;durP1;ratioP1;P1;durP2;ratioP2;P2;SDS_P1;SDS_P2;PMS_P1;PMS_P2;Temp;Humidity;BMP_temperature;BMP_pressure;BME280_temperature;BME280_humidity;BME280_pressure;Samples;Min_cycle;Max_cycle;Signal;HPM_P1;HPM_P2
2024/01/27 00:00:22;;;;;;;4.43;1.88;;;;;;;4.43;64.39;98933.22;4971703;28;20045;-84
2024/01/27 00:02:47;;;;;;;5.35;2.55;;;;;;;4.40;63.67;98936.13;4958713;28;20043;-85
2024/01/27 00:05:12;;;;;;;5.28;2.70;;;;;;;4.41;64.03;98925.63;4970385;28;20393;-85
2024/01/27 00:07:38;;;;;;;4.43;2.70;;;;;;;4.48;63.96;98933.53;4959655;28;20037;-82
2024/01/27 00:10:04;;;;;;;3.97;3.15;;;;;;;4.44;63.39;98940.78;4974489;28;20065;-79
2024/01/27 00:12:29;;;;;;;6.90;3.97;;;;;;;4.40;63.56;98936.13;4957763;28;20065;-79
2024/01/27 00:14:54;;;;;;;6.43;4.10;;;;;;;4.34;63.35;98926.47;4944910;28;20038;-79
2024/01/27 00:17:23;;;;;;;6.95;4.05;;;;;;;4.36;63.52;98932.25;4939669;28;20038;-80
2024/01/27 00:19:50;;;;;;;7.35;3.72;;;;;;;4.36;62.71;98934.84;4959425;28;20038;-79
2024/01/27 00:22:16;;;;;;;8.60;5.05;;;;;;;4.32;63.02;98936.94;4980220;28;20060;-79
2024/01/27 00:24:42;;;;;;;8.88;4.72;;;;;;;4.30;63.40;98936.25;4954603;28;20034;-80
2024/01/27 00:27:08;;;;;;;9.60;5.38;;;;;;;4.26;64.10;98922.88;4965950;28;20038;-80
2024/01/27 00:29:33;;;;;;;8.48;4.82;;;;;;;4.33;63.44;98925.63;4962990;28;20042;-79
2024/01/27 00:31:58;;;;;;;8.52;4.85;;;;;;;4.29;63.65;98930.31;4949484;28;20035;-79
2024/01/27 00:34:25;;;;;;;19.20;8.73;;;;;;;4.28;63.02;98930.47;4973177;28;20066;-79
2024/01/27 00:36:50;;;;;;;27.52;13.13;;;;;;;4.27;62.90;98936.59;4967203;28;20046;-79
2024/01/27 00:39:16;;;;;;;20.10;9.45;;;;;;;4.27;63.51;98929.66;4970941;28;20335;-79
2024/01/27 00:41:42;;;;;;;14.20;5.70;;;;;;;4.21;63.65;98921.75;4976487;28;20667;-79
2024/01/27 00:44:07;;;;;;;5.05;2.90;;;;;;;4.21;63.24;98932.06;4972616;28;20058;-79
2024/01/27 00:46:32;;;;;;;5.25;2.47;;;;;;;4.19;63.87;98945.13;4961434;28;20644;-79
2024/01/27 00:48:58;;;;;;;6.28;1.80;;;;;;;4.26;63.26;98934.97;4981871;28;20023;-79
2024/01/27 00:51:26;;;;;;;3.92;2.00;;;;;;;4.32;62.42;98936.94;4976617;28;20113;-80
2024/01/27 00:53:51;;;;;;;3.13;1.50;;;;;;;4.36;61.84;98942.56;4973423;28;20031;-79
2024/01/27 00:56:17;;;;;;;2.90;1.48;;;;;;;4.29;62.36;98940.63;4963065;28;20042;-79
2024/01/27 00:58:42;;;;;;;3.65;1.35;;;;;;;4.23;63.07;98927.56;4984319;28;20225;-79
2024/01/27 01:01:07;;;;;;;2.03;1.38;;;;;;;4.20;63.36;98933.03;4966591;28;20047;-79
2024/01/27 01:03:33;;;;;;;7.65;2.10;;;;;;;4.28;63.11;98939.03;4977006;28;20027;-80
2024/01/27 01:05:58;;;;;;;3.30;1.60;;;;;;;4.26;62.91;98950.44;4959605;28;20096;-80
2024/01/27 01:08:26;;;;;;;5.85;1.55;;;;;;;4.24;63.37;98945.44;4974017;28;20045;-79
2024/01/27 01:10:51;;;;;;;4.13;1.80;;;;;;;4.21;63.73;98942.38;4965262;28;20027;-80
2024/01/27 01:13:17;;;;;;;5.35;1.60;;;;;;;4.24;63.26;98947.22;4985989;28;20049;-80
2024/01/27 01:15:42;;;;;;;4.78;1.52;;;;;;;4.24;63.54;98945.44;4987144;28;20031;-80
2024/01/27 01:18:07;;;;;;;2.63;1.30;;;;;;;4.24;63.55;98942.06;4966391;28;20038;-80
2024/01/27 01:20:33;;;;;;;4.82;1.52;;;;;;;4.27;63.54;98945.13;4981546;28;20031;-80
2024/01/27 01:22:58;;;;;;;5.00;2.00;;;;;;;4.27;63.54;98949.50;4963329;28;20750;-80
2024/01/27 01:25:26;;;;;;;6.57;2.47;;;;;;;4.30;63.82;98942.25;4972995;28;20565;-80
2024/01/27 01:27:52;;;;;;;7.88;2.13;;;;;;;4.28;64.33;98951.09;4939815;28;20335;-80
2024/01/27 01:30:18;;;;;;;6.55;2.17;;;;;;;4.30;63.80;98957.72;4977266;28;20401;-80
2024/01/27 01:32:43;;;;;;;5.53;1.85;;;;;;;4.26;63.77;98955.59;4963791;28;20050;-79
2024/01/27 01:35:10;;;;;;;6.18;2.35;;;;;;;4.24;63.24;98952.38;4983544;28;20042;-80
2024/01/27 01:37:35;;;;;;;2.80;1.73;;;;;;;4.25;63.19;98959.13;4964078;28;20493;-80
2024/01/27 01:40:02;;;;;;;6.07;1.83;;;;;;;4.23;63.01;98964.47;4993571;28;20070;-86
2024/01/27 01:42:29;;;;;;;4.35;1.88;;;;;;;4.22;63.34;98970.59;4959147;28;20123;-85
2024/01/27 01:44:54;;;;;;;4.70;1.80;;;;;;;4.21;62.79;98968.16;4945391;28;20041;-86
2024/01/27 01:47:20;;;;;;;7.78;2.20;;;;;;;4.20;62.57;98971.69;4957319;28;20046;-86
2024/01/27 01:49:45;;;;;;;7.47;2.65;;;;;;;4.18;63.07;98973.63;4977754;28;20039;-85
2024/01/27 01:52:11;;;;;;;5.10;2.40;;;;;;;4.17;62.58;98980.56;4962249;28;20101;-85
2024/01/27 01:54:37;;;;;;;3.80;1.83;;;;;;;4.27;61.45;98983.81;4983335;28;20397;-85
2024/01/27 01:57:03;;;;;;;6.72;1.90;;;;;;;4.32;60.83;98981.56;4987459;28;20061;-86
2024/01/27 01:59:28;;;;;;;3.10;1.65;;;;;;;4.21;60.77;98971.53;4965562;28;20030;-87
2024/01/27 02:01:56;;;;;;;3.70;1.38;;;;;;;4.05;61.09;98985.22;4939422;28;20171;-85
2024/01/27 02:04:22;;;;;;;3.50;1.50;;;;;;;3.96;62.37;98993.91;4985431;28;20034;-86
2024/01/27 02:06:47;;;;;;;5.20;1.92;;;;;;;3.94;61.98;98988.91;4971060;28;20075;-84
2024/01/27 02:09:13;;;;;;;5.68;1.70;;;;;;;3.92;62.42;98980.53;4988790;28;20028;-85
2024/01/27 02:11:41;;;;;;;4.35;2.22;;;;;;;3.90;62.87;98976.47;4977737;28;20038;-85
2024/01/27 02:14:07;;;;;;;4.82;1.98;;;;;;;3.93;62.90;98966.66;4973778;28;20036;-86
2024/01/27 02:16:32;;;;;;;5.82;2.35;;;;;;;3.94;62.48;98970.84;4960373;28;20129;-86
2024/01/27 02:18:58;;;;;;;6.22;2.58;;;;;;;3.93;63.16;98971.00;4952936;28;20145;-85
2024/01/27 02:21:26;;;;;;;5.50;2.70;;;;;;;4.02;62.74;98971.84;4950990;28;20031;-87
2024/01/27 02:23:51;;;;;;;4.55;2.75;;;;;;;3.94;62.26;98973.44;4949117;28;20037;-83
2024/01/27 02:26:17;;;;;;;6.35;2.90;;;;;;;3.94;63.24;98975.19;4965216;28;20042;-83
2024/01/27 02:28:42;;;;;;;5.50;2.58;;;;;;;3.94;62.48;98988.91;4959222;28;20031;-80
2024/01/27 02:31:07;;;;;;;6.05;2.22;;;;;;;3.92;62.65;98995.16;4948671;28;20528;-80
2024/01/27 02:33:33;;;;;;;4.70;2.20;;;;;;;3.93;63.14;98997.56;4943645;28;20034;-80
2024/01/27 02:35:58;;;;;;;10.35;2.92;;;;;;;3.96;62.66;98996.47;4950407;28;20030;-80
2024/01/27 02:38:27;;;;;;;6.28;2.30;;;;;;;4.10;61.92;98992.47;4970590;28;20026;-80
2024/01/27 02:40:52;;;;;;;4.07;2.40;;;;;;;4.13;61.07;98997.34;4948331;28;20080;-80
2024/01/27 02:43:17;;;;;;;6.05;2.90;;;;;;;4.03;59.84;98984.56;4959624;28;20168;-80
2024/01/27 02:45:43;;;;;;;3.70;2.13;;;;;;;4.08;59.37;99004.72;4962689;28;20034;-80
2024/01/27 02:48:08;;;;;;;3.25;1.45;;;;;;;4.02;59.62;99007.91;4940526;28;20034;-80
2024/01/27 02:50:33;;;;;;;7.85;2.58;;;;;;;4.00;59.74;99004.69;4957471;28;20047;-85
2024/01/27 02:52:59;;;;;;;3.58;1.80;;;;;;;3.85;59.64;99010.44;4939599;28;20049;-85
2024/01/27 02:55:24;;;;;;;6.40;1.70;;;;;;;3.68;60.87;99008.75;4951116;28;20125;-85
2024/01/27 02:57:52;;;;;;;4.57;2.28;;;;;;;3.62;61.02;99006.81;4967382;28;20171;-85
2024/01/27 03:00:19;;;;;;;3.63;1.67;;;;;;;3.65;61.36;98999.59;4950981;28;20038;-85
2024/01/27 03:02:44;;;;;;;3.65;1.60;;;;;;;3.58;60.93;99000.34;4957662;28;20114;-86
2024/01/27 03:05:13;;;;;;;5.70;1.60;;;;;;;3.49;60.95;98982.25;4976686;28;20455;-84
2024/01/27 03:07:39;;;;;;;3.38;1.63;;;;;;;3.57;61.67;98991.81;4959316;28;20394;-82
2024/01/27 03:10:05;;;;;;;4.72;2.00;;;;;;;3.51;61.65;99003.53;4952702;28;20061;-85
2024/01/27 03:12:30;;;;;;;4.32;1.60;;;;;;;3.47;61.67;99006.56;4978005;28;20572;-85
2024/01/27 03:14:56;;;;;;;4.22;2.20;;;;;;;3.39;61.98;98999.59;4945358;28;20092;-85
2024/01/27 03:17:21;;;;;;;4.72;2.00;;;;;;;3.39;61.71;99002.16;4962757;28;20043;-85
2024/01/27 03:19:47;;;;;;;4.65;1.60;;;;;;;3.48;61.91;99013.31;4936603;28;20046;-85
2024/01/27 03:22:12;;;;;;;4.22;1.95;;;;;;;3.40;62.42;99011.53;4964166;28;20035;-85
2024/01/27 03:24:37;;;;;;;5.03;1.63;;;;;;;3.36;62.76;99011.03;4945784;28;20035;-84
2024/01/27 03:27:03;;;;;;;4.63;1.90;;;;;;;3.44;63.03;99012.03;4958755;28;20121;-85
2024/01/27 03:29:28;;;;;;;2.78;1.88;;;;;;;3.47;62.89;99009.94;4972992;28;20050;-84
2024/01/27 03:31:54;;;;;;;4.97;1.70;;;;;;;3.54;62.96;99005.00;4975539;28;20034;-85
2024/01/27 03:34:24;;;;;;;4.38;1.70;;;;;;;3.49;62.71;99008.00;4949424;28;20038;-85
2024/01/27 03:36:50;;;;;;;6.82;2.10;;;;;;;3.48;63.37;99021.88;4967801;28;20794;-84
2024/01/27 03:39:15;;;;;;;3.70;1.77;;;;;;;3.52;62.37;99019.78;4964107;28;20066;-82
2024/01/27 03:41:41;;;;;;;3.95;1.48;;;;;;;3.56;61.67;99016.78;4956434;28;20042;-83
2024/01/27 03:44:06;;;;;;;5.38;1.77;;;;;;;3.56;61.76;99014.19;4958528;28;20117;-84
2024/01/27 03:46:31;;;;;;;4.90;1.65;;;;;;;3.60;62.22;99012.13;4969368;28;20034;-84
2024/01/27 03:48:57;;;;;;;3.92;1.40;;;;;;;3.68;61.62;99019.06;4959545;28;20092;-84
2024/01/27 03:51:23;;;;;;;4.78;2.08;;;;;;;3.69;59.92;99021.47;4960754;28;20041;-84
2024/01/27 03:53:48;;;;;;;2.20;1.38;;;;;;;3.58;60.08;99034.63;4946582;28;20513;-85
2024/01/27 03:56:14;;;;;;;5.30;1.48;;;;;;;3.41;61.10;99028.59;4965322;28;20031;-84
2024/01/27 03:58:40;;;;;;;5.10;2.10;;;;;;;3.39;61.57;99030.50;4979530;28;20034;-83
2024/01/27 04:01:05;;;;;;;4.32;1.50;;;;;;;3.35;62.01;99024.84;4966673;28;20573;-80
2024/01/27 04:03:33;;;;;;;2.92;1.83;;;;;;;3.53;61.00;99032.53;4965428;28;20495;-79
2024/01/27 04:05:59;;;;;;;6.22;1.58;;;;;;;3.58;60.42;99038.97;4947051;28;20035;-80
2024/01/27 04:08:24;;;;;;;3.35;1.25;;;;;;;3.51;60.73;99039.59;4959123;28;20509;-79
2024/01/27 04:10:49;;;;;;;3.13;1.50;;;;;;;3.54;60.03;99033.31;4967318;28;20061;-80
2024/01/27 04:13:15;;;;;;;3.80;1.52;;;;;;;3.58;60.26;99039.78;4967287;28;20085;-79
2024/01/27 04:15:40;;;;;;;4.60;1.52;;;;;;;3.59;59.70;99036.25;4972133;28;20038;-79
2024/01/27 04:18:08;;;;;;;2.88;1.55;;;;;;;3.47;59.69;99046.00;4956085;28;20038;-80
2024/01/27 04:20:34;;;;;;;5.63;1.90;;;;;;;3.25;60.15;99052.44;4961159;28;20163;-79
2024/01/27 04:22:59;;;;;;;2.83;1.38;;;;;;;3.18;61.11;99039.38;4977546;28;20035;-79
2024/01/27 04:25:25;;;;;;;5.68;1.95;;;;;;;3.21;61.80;99052.91;4976309;28;20038;-79
2024/01/27 04:27:50;;;;;;;3.22;1.42;;;;;;;3.13;61.47;99040.78;4970181;28;20760;-79
2024/01/27 04:30:16;;;;;;;2.13;1.25;;;;;;;3.20;61.54;99046.94;4965723;28;20138;-79
2024/01/27 04:32:41;;;;;;;4.93;1.60;;;;;;;3.17;61.36;99047.25;4972942;28;20506;-80
2024/01/27 04:35:10;;;;;;;5.07;1.88;;;;;;;3.14;61.29;99034.69;4944965;28;20478;-79
2024/01/27 04:37:36;;;;;;;4.10;1.42;;;;;;;3.07;61.38;99037.06;4991810;28;20092;-79
2024/01/27 04:40:01;;;;;;;5.00;1.73;;;;;;;3.15;61.52;99038.88;4937818;28;20046;-79
2024/01/27 04:42:29;;;;;;;3.40;1.48;;;;;;;3.23;60.98;99040.69;4960650;28;20372;-79
2024/01/27 04:44:54;;;;;;;5.65;1.55;;;;;;;3.21;61.23;99033.13;4968271;28;20088;-79
2024/01/27 04:47:20;;;;;;;4.35;1.77;;;;;;;3.22;60.91;99033.94;4966493;28;20361;-80
2024/01/27 04:49:45;;;;;;;4.35;1.60;;;;;;;3.17;60.87;99037.78;4963145;28;20047;-79
2024/01/27 04:52:10;;;;;;;4.35;1.77;;;;;;;3.22;60.43;99039.06;4972257;28;20073;-80
2024/01/27 04:54:36;;;;;;;3.13;1.35;;;;;;;3.33;60.35;99049.13;4975829;28;20064;-79
2024/01/27 04:57:05;;;;;;;5.25;1.60;;;;;;;3.40;59.84;99047.56;4962768;28;20501;-79
2024/01/27 04:59:30;;;;;;;4.30;1.38;;;;;;;3.23;59.82;99056.16;4963590;28;20046;-79
2024/01/27 05:01:55;;;;;;;5.00;1.95;;;;;;;3.29;60.21;99050.38;4957429;28;20042;-79
2024/01/27 05:04:21;;;;;;;4.13;1.70;;;;;;;3.26;59.93;99036.06;4954469;28;20461;-79
2024/01/27 05:06:46;;;;;;;2.83;1.30;;;;;;;3.28;60.08;99041.06;4965160;28;20091;-79
2024/01/27 05:09:16;;;;;;;4.22;1.40;;;;;;;3.26;60.25;99050.69;4957667;28;20032;-84
2024/01/27 05:11:42;;;;;;;4.70;1.95;;;;;;;3.19;60.33;99035.06;4951514;28;20394;-84
2024/01/27 05:14:08;;;;;;;4.40;1.67;;;;;;;3.05;60.70;99031.25;4940510;28;20265;-84
2024/01/27 05:16:34;;;;;;;4.03;1.42;;;;;;;2.92;61.37;99033.41;4965063;28;20482;-83
2024/01/27 05:18:59;;;;;;;4.22;1.80;;;;;;;2.97;61.10;99036.34;4965151;28;20518;-82
2024/01/27 05:21:25;;;;;;;4.00;1.55;;;;;;;2.96;60.92;99030.34;4949386;28;20065;-84
2024/01/27 05:23:50;;;;;;;4.05;1.90;;;;;;;2.98;60.89;99032.78;4948609;28;20031;-84
2024/01/27 05:26:15;;;;;;;3.85;1.58;;;;;;;2.83;61.41;99040.25;4945815;28;20034;-83
2024/01/27 05:28:41;;;;;;;4.32;1.77;;;;;;;2.77;61.72;99039.06;4962237;28;20046;-83
2024/01/27 05:31:07;;;;;;;3.25;1.27;;;;;;;2.86;61.52;99045.06;4959334;28;20466;-85
2024/01/27 05:33:32;;;;;;;2.65;1.50;;;;;;;2.89;61.44;99044.78;4960830;28;20081;-84
2024/01/27 05:35:57;;;;;;;3.72;1.55;;;;;;;2.83;61.12;99044.56;4985098;28;20037;-84
2024/01/27 05:38:23;;;;;;;4.25;1.60;;;;;;;2.75;62.15;99046.13;4949679;28;20044;-83
2024/01/27 05:40:50;;;;;;;5.60;1.70;;;;;;;2.79;61.86;99050.03;4970449;28;20338;-84
2024/01/27 05:43:16;;;;;;;3.17;1.85;;;;;;;2.73;62.37;99034.38;4950672;28;20490;-83
2024/01/27 05:45:41;;;;;;;3.00;1.83;;;;;;;2.79;62.75;99055.16;4968354;28;20069;-84
2024/01/27 05:48:07;;;;;;;3.65;1.67;;;;;;;2.90;62.46;99056.69;4971912;28;20034;-84
2024/01/27 05:50:34;;;;;;;2.75;1.45;;;;;;;2.80;61.51;99051.63;4966308;28;20714;-84
2024/01/27 05:52:59;;;;;;;3.65;1.48;;;;;;;2.77;61.73;99057.06;4952149;28;20034;-84
2024/01/27 05:55:25;;;;;;;3.03;1.40;;;;;;;2.85;62.00;99063.25;4950531;28;20418;-84
2024/01/27 05:57:50;;;;;;;3.83;1.23;;;;;;;2.83;61.25;99057.44;4967877;28;20042;-85
2024/01/27 06:00:15;;;;;;;3.78;1.20;;;;;;;2.77;61.58;99057.06;4965942;28;20035;-84
2024/01/27 06:02:41;;;;;;;2.95;1.30;;;;;;;2.78;61.73;99052.75;4957095;28;20470;-85
2024/01/27 06:05:08;;;;;;;3.45;2.03;;;;;;;2.77;61.67;99057.06;4959752;28;20171;-84
2024/01/27 06:07:40;;;;;;;3.70;1.60;;;;;;;2.79;61.39;99067.19;4968181;28;20043;-84
2024/01/27 06:10:09;;;;;;;6.70;1.50;;;;;;;2.85;62.15;99074.34;4972280;28;20091;-84
2024/01/27 06:12:35;;;;;;;3.90;1.88;;;;;;;2.79;62.11;99074.91;4961640;28;20027;-84
2024/01/27 06:15:00;;;;;;;3.75;1.15;;;;;;;2.81;61.95;99078.97;4975248;28;20498;-84
2024/01/27 06:17:26;;;;;;;4.80;1.60;;;;;;;2.83;61.25;99076.25;4963496;28;20033;-84
2024/01/27 06:19:51;;;;;;;3.50;1.50;;;;;;;2.91;61.26;99078.88;4959879;28;20031;-84
2024/01/27 06:22:16;;;;;;;2.50;1.30;;;;;;;2.97;60.99;99077.50;4969549;28;20042;-84
2024/01/27 06:24:43;;;;;;;4.50;1.27;;;;;;;2.98;60.31;99068.81;4965963;28;20176;-84
2024/01/27 06:27:09;;;;;;;3.88;1.77;;;;;;;2.97;60.17;99072.34;4945245;28;20062;-84
2024/01/27 06:29:34;;;;;;;4.20;1.52;;;;;;;2.84;60.52;99077.06;4958696;28;20069;-84
2024/01/27 06:32:00;;;;;;;4.30;1.73;;;;;;;2.83;60.81;99070.28;4968047;28;20109;-84
2024/01/27 06:34:25;;;;;;;3.42;1.17;;;;;;;2.86;60.84;99073.38;4970960;28;20034;-84
2024/01/27 06:36:50;;;;;;;4.03;1.33;;;;;;;2.81;60.54;99080.72;4976399;28;20042;-84
2024/01/27 06:39:16;;;;;;;3.13;1.70;;;;;;;2.80;60.67;99081.69;4965457;28;20153;-85
2024/01/27 06:41:41;;;;;;;4.20;1.45;;;;;;;2.72;60.27;99074.69;4980288;28;20046;-84
2024/01/27 06:44:07;;;;;;;4.72;1.52;;;;;;;2.67;60.39;99071.75;4945941;28;20031;-84
2024/01/27 06:46:32;;;;;;;3.53;1.77;;;;;;;2.66;61.26;99077.88;4966089;28;20050;-85
2024/01/27 06:48:58;;;;;;;6.20;1.70;;;;;;;2.63;60.83;99076.38;4980439;28;20034;-85
2024/01/27 06:51:23;;;;;;;4.85;1.58;;;;;;;2.52;61.73;99073.22;4975567;28;20030;-84
2024/01/27 06:53:49;;;;;;;4.90;1.73;;;;;;;2.48;61.31;99070.13;4946770;28;20534;-83
2024/01/27 06:56:14;;;;;;;4.35;1.83;;;;;;;2.48;61.89;99071.91;4946489;28;20046;-85
2024/01/27 06:58:40;;;;;;;4.93;1.90;;;;;;;2.52;61.69;99068.06;4975592;28;20461;-85
2024/01/27 07:01:07;;;;;;;4.72;2.78;;;;;;;2.62;60.85;99081.66;4976545;28;20034;-85
2024/01/27 07:03:32;;;;;;;8.48;4.75;;;;;;;2.53;61.31;99070.50;4965869;28;20025;-85
2024/01/27 07:06:00;;;;;;;5.55;3.88;;;;;;;2.57;61.28;99071.84;4965367;28;20038;-86
2024/01/27 07:08:26;;;;;;;4.38;3.42;;;;;;;2.54;61.03;99068.75;4945401;28;20042;-85
2024/01/27 07:10:51;;;;;;;6.32;2.63;;;;;;;2.52;61.32;99075.78;4947917;28;20038;-81
2024/01/27 07:13:17;;;;;;;4.57;2.60;;;;;;;2.49;61.54;99073.53;4962094;28;20339;-81
2024/01/27 07:15:42;;;;;;;5.53;3.38;;;;;;;2.39;61.76;99071.81;4972295;28;20505;-80
2024/01/27 07:18:08;;;;;;;7.90;4.50;;;;;;;2.46;61.76;99069.47;4965233;28;20125;-80
2024/01/27 07:20:33;;;;;;;6.97;3.78;;;;;;;2.50;61.97;99059.69;4944489;28;20030;-81
2024/01/27 07:22:59;;;;;;;5.55;3.03;;;;;;;2.51;61.63;99067.28;4962471;28;20163;-81
2024/01/27 07:25:24;;;;;;;4.57;2.92;;;;;;;2.49;61.47;99066.63;4973894;28;20034;-81
2024/01/27 07:27:49;;;;;;;3.92;2.10;;;;;;;2.56;61.48;99077.13;4980933;28;20070;-80
2024/01/27 07:30:15;;;;;;;4.47;1.60;;;;;;;2.59;61.67;99076.84;4962990;28;20030;-81
2024/01/27 07:32:41;;;;;;;3.83;1.98;;;;;;;2.54;62.07;99071.31;4979467;28;20517;-81
2024/01/27 07:35:07;;;;;;;5.63;1.40;;;;;;;2.63;62.24;99078.16;4941483;28;20033;-81
2024/01/27 07:37:32;;;;;;;6.32;2.13;;;;;;;2.61;62.35;99082.66;4984593;28;20434;-81
2024/01/27 07:39:57;;;;;;;5.18;1.63;;;;;;;2.64;62.63;99079.78;4982737;28;20478;-81
2024/01/27 07:42:23;;;;;;;3.42;1.70;;;;;;;2.62;62.90;99076.53;4962754;28;20026;-81
2024/01/27 07:44:49;;;;;;;3.67;1.30;;;;;;;2.61;62.58;99069.78;4960326;28;20478;-81
2024/01/27 07:47:15;;;;;;;5.10;1.55;;;;;;;2.70;62.53;99068.91;4942780;28;20372;-81
2024/01/27 07:49:40;;;;;;;6.03;3.72;;;;;;;2.73;62.29;99055.75;4981374;28;20067;-81
2024/01/27 07:52:06;;;;;;;8.32;3.97;;;;;;;2.76;61.93;99065.75;4960476;28;20038;-81
2024/01/27 07:54:32;;;;;;;6.90;2.90;;;;;;;2.84;61.50;99077.06;4956714;28;20549;-81
2024/01/27 07:56:58;;;;;;;7.53;2.92;;;;;;;2.96;61.54;99081.03;4979997;28;20042;-81
2024/01/27 07:59:24;;;;;;;6.80;3.10;;;;;;;2.85;61.25;99074.34;4951300;28;20034;-81
2024/01/27 08:01:49;;;;;;;8.38;3.83;;;;;;;2.94;61.29;99083.75;4957597;28;20035;-81
2024/01/27 08:04:16;;;;;;;9.07;3.47;;;;;;;2.96;61.14;99070.72;4969308;28;20439;-80
2024/01/27 08:06:49;;;;;;;11.40;3.88;;;;;;;3.21;61.15;99084.59;4973815;28;20130;-81
2024/01/27 08:09:15;;;;;;;5.55;3.28;;;;;;;3.20;60.67;99077.84;4974855;28;20031;-81
2024/01/27 08:11:41;;;;;;;8.43;3.90;;;;;;;3.13;60.58;99082.75;4961177;28;20414;-80
2024/01/27 08:14:07;;;;;;;5.18;3.13;;;;;;;3.05;60.38;99079.31;4960201;28;20039;-80
2024/01/27 08:16:34;;;;;;;4.47;2.65;;;;;;;2.96;61.23;99073.31;4951063;28;20119;-80
2024/01/27 08:18:59;;;;;;;5.15;2.40;;;;;;;2.95;60.83;99082.00;4951431;28;20039;-80
2024/01/27 08:21:24;;;;;;;7.05;2.42;;;;;;;2.97;61.06;99104.03;4964925;28;20038;-80
2024/01/27 08:23:50;;;;;;;6.13;3.33;;;;;;;2.88;61.67;99104.09;4959421;28;20035;-79
2024/01/27 08:26:15;;;;;;;9.45;2.88;;;;;;;2.92;61.51;99095.16;4963207;28;20447;-79
2024/01/27 08:28:40;;;;;;;4.35;2.35;;;;;;;3.00;61.66;99101.16;4936247;28;20406;-79
2024/01/27 08:31:06;;;;;;;6.00;2.15;;;;;;;2.99;61.69;99093.59;4949479;28;20077;-80
2024/01/27 08:33:31;;;;;;;6.43;2.60;;;;;;;3.04;61.76;99088.81;4937307;28;20264;-79
2024/01/27 08:35:57;;;;;;;8.15;2.92;;;;;;;3.05;62.20;99095.59;4964200;28;20117;-80
2024/01/27 08:38:22;;;;;;;6.25;2.80;;;;;;;3.05;62.32;99098.16;4938297;28;20130;-79
2024/01/27 08:40:48;;;;;;;4.68;2.70;;;;;;;3.17;62.61;99109.00;4936102;28;20023;-79
2024/01/27 08:43:13;;;;;;;5.38;2.25;;;;;;;3.17;62.38;99109.84;4971435;28;20029;-79
2024/01/27 08:45:39;;;;;;;6.47;2.20;;;;;;;3.26;63.12;99113.28;4970114;28;20061;-79
2024/01/27 08:48:05;;;;;;;6.00;1.73;;;;;;;3.27;62.87;99094.28;4961866;28;20250;-80
2024/01/27 08:50:31;;;;;;;5.47;2.30;;;;;;;3.29;62.83;99078.69;4956691;28;20551;-79
2024/01/27 08:52:56;;;;;;;4.00;2.22;;;;;;;3.40;63.30;99096.50;4962220;28;20088;-79
2024/01/27 08:55:23;;;;;;;7.80;2.30;;;;;;;3.41;63.17;99087.81;4980314;28;20058;-79
2024/01/27 08:57:49;;;;;;;5.72;2.40;;;;;;;3.49;62.67;99095.56;4956541;28;20060;-79
2024/01/27 09:00:16;;;;;;;3.33;2.05;;;;;;;3.56;62.80;99093.19;4966790;28;20030;-79
2024/01/27 09:02:42;;;;;;;7.55;2.15;;;;;;;3.67;63.50;99099.88;4977792;28;20034;-79
2024/01/27 09:05:08;;;;;;;3.13;1.60;;;;;;;3.78;63.36;99097.03;4964279;28;20109;-79
2024/01/27 09:07:34;;;;;;;5.20;2.03;;;;;;;3.87;63.15;99103.88;4967334;28;20451;-79
2024/01/27 09:09:59;;;;;;;4.45;1.65;;;;;;;3.98;63.54;99105.38;4967441;28;20075;-78
2024/01/27 09:12:24;;;;;;;4.95;1.50;;;;;;;4.15;63.30;99098.50;4961880;28;20073;-79
2024/01/27 09:14:50;;;;;;;4.60;1.50;;;;;;;4.23;63.58;99095.16;4976472;28;20051;-79
2024/01/27 09:17:15;;;;;;;4.35;1.88;;;;;;;4.39;62.53;99091.84;4969086;28;20549;-79
2024/01/27 09:19:41;;;;;;;3.45;1.77;;;;;;;4.37;63.26;99084.25;4964108;28;20395;-79
2024/01/27 09:22:06;;;;;;;4.72;2.60;;;;;;;4.44;63.16;99077.50;4963705;28;20049;-79
2024/01/27 09:24:32;;;;;;;6.72;2.83;;;;;;;4.55;64.03;99086.69;4984445;28;20484;-79
2024/01/27 09:26:57;;;;;;;23.08;11.32;;;;;;;4.68;64.27;99081.91;4955712;28;20034;-79
2024/01/27 09:29:22;;;;;;;23.70;13.40;;;;;;;4.84;63.11;99077.72;4958725;28;20091;-78
2024/01/27 09:31:48;;;;;;;22.83;12.98;;;;;;;4.92;63.99;99074.31;4981630;28;20042;-78
2024/01/27 09:34:13;;;;;;;20.65;12.20;;;;;;;5.03;63.48;99077.41;4944737;28;20042;-78
2024/01/27 09:36:38;;;;;;;14.55;9.32;;;;;;;5.15;64.21;99084.81;4975576;28;20035;-79
2024/01/27 09:39:04;;;;;;;15.88;9.95;;;;;;;5.32;63.77;99088.22;4969601;28;20035;-79
2024/01/27 09:41:33;;;;;;;15.77;10.15;;;;;;;5.38;63.27;99090.97;4956997;28;20442;-78
2024/01/27 09:44:02;;;;;;;15.02;10.18;;;;;;;5.46;63.79;99084.97;4974178;28;20554;-79
2024/01/27 09:46:29;;;;;;;13.43;8.80;;;;;;;5.43;64.35;99078.34;4968035;28;20288;-80
2024/01/27 09:48:55;;;;;;;9.77;5.80;;;;;;;5.50;63.42;99072.50;4960551;28;20066;-79
2024/01/27 09:51:21;;;;;;;8.15;5.35;;;;;;;5.62;63.70;99084.13;4961857;28;20054;-79
2024/01/27 09:53:46;;;;;;;8.10;4.82;;;;;;;5.73;63.30;99093.31;4953670;28;20042;-78
2024/01/27 09:56:17;;;;;;;11.82;9.00;;;;;;;5.81;64.41;99101.06;4962646;28;20394;-79
2024/01/27 09:58:44;;;;;;;11.77;8.70;;;;;;;5.89;63.61;99089.88;4977045;28;20035;-80
2024/01/27 10:01:10;;;;;;;15.63;9.80;;;;;;;6.02;63.93;99091.97;4952226;28;20031;-79
2024/01/27 10:03:38;;;;;;;15.73;8.50;;;;;;;6.27;63.63;99096.06;4963766;28;20034;-79
2024/01/27 10:06:08;;;;;;;7.95;5.00;;;;;;;6.47;63.04;99093.06;4967714;28;20036;-79
2024/01/27 10:08:33;;;;;;;7.93;3.08;;;;;;;6.53;62.57;99082.84;4956803;28;20092;-79
2024/01/27 10:10:58;;;;;;;6.57;2.22;;;;;;;6.74;61.67;99082.22;4963627;28;20035;-80
2024/01/27 10:13:27;;;;;;;6.15;2.20;;;;;;;6.87;61.72;99081.66;4986169;28;20078;-81
2024/01/27 10:16:03;;;;;;;4.10;1.65;;;;;;;7.06;60.39;99089.91;4962984;28;20443;-80
2024/01/27 10:18:29;;;;;;;6.00;1.80;;;;;;;6.91;60.40;99089.88;4935455;28;20035;-80
2024/01/27 10:20:54;;;;;;;4.88;2.05;;;;;;;7.03;60.83;99101.44;4965549;28;20060;-80
2024/01/27 10:23:20;;;;;;;4.68;1.67;;;;;;;7.02;60.59;99086.06;4979926;28;20061;-80
2024/01/27 10:25:45;;;;;;;5.88;1.85;;;;;;;7.11;59.42;99079.84;4975374;28;20070;-80
2024/01/27 10:28:11;;;;;;;4.07;1.50;;;;;;;7.16;60.11;99084.50;4962561;28;20045;-80
2024/01/27 10:30:37;;;;;;;5.20;2.67;;;;;;;7.32;58.74;99099.91;4969185;28;20050;-80
2024/01/27 10:33:03;;;;;;;4.70;1.73;;;;;;;7.47;58.05;99105.09;4946728;28;20035;-80
2024/01/27 10:35:29;;;;;;;6.18;2.33;;;;;;;7.53;57.85;99086.28;4971345;28;20047;-80
2024/01/27 10:37:55;;;;;;;3.20;1.52;;;;;;;7.50;57.34;99073.66;4996973;28;20038;-80
2024/01/27 10:40:21;;;;;;;3.22;2.05;;;;;;;7.61;58.29;99083.59;4955372;28;20043;-80
2024/01/27 10:42:47;;;;;;;6.57;2.20;;;;;;;7.75;58.22;99082.00;4971168;28;20356;-80
2024/01/27 10:45:13;;;;;;;6.47;1.70;;;;;;;7.78;56.54;99078.22;4976024;28;20038;-80
2024/01/27 10:47:39;;;;;;;6.70;1.92;;;;;;;7.90;56.59;99076.00;4961312;28;20395;-80
2024/01/27 10:50:09;;;;;;;2.58;1.42;;;;;;;8.11;55.45;99083.88;4948068;28;20030;-79
2024/01/27 10:52:38;;;;;;;3.67;1.40;;;;;;;8.11;56.51;99088.25;4972735;28;20109;-79
2024/01/27 10:55:09;;;;;;;5.05;1.70;;;;;;;8.16;55.91;99085.91;4968545;28;20121;-79
2024/01/27 10:57:35;;;;;;;4.95;2.25;;;;;;;8.24;55.61;99078.00;4990113;28;20346;-79
2024/01/27 11:00:03;;;;;;;5.47;1.70;;;;;;;8.32;55.30;99077.91;4938574;28;20039;-79
2024/01/27 11:02:32;;;;;;;3.13;1.40;;;;;;;8.38;54.85;99068.59;4957019;28;20042;-79
2024/01/27 11:04:59;;;;;;;4.78;1.23;;;;;;;8.47;53.44;99069.34;4958258;28;20541;-79
2024/01/27 11:07:25;;;;;;;4.95;1.55;;;;;;;8.59;53.43;99080.84;4964770;28;20037;-79
2024/01/27 11:09:53;;;;;;;6.45;1.70;;;;;;;8.59;53.47;99070.44;4964942;28;20030;-79
2024/01/27 11:12:22;;;;;;;4.05;1.55;;;;;;;8.67;54.29;99072.13;4976019;28;20027;-79
2024/01/27 11:14:48;;;;;;;5.85;2.00;;;;;;;8.60;54.30;99057.28;4952443;28;20479;-78
2024/01/27 11:17:15;;;;;;;3.80;1.80;;;;;;;8.68;55.18;99043.38;4969904;28;20069;-78
2024/01/27 11:19:40;;;;;;;7.45;3.40;;;;;;;8.66;54.97;99045.34;4961013;28;20042;-78
2024/01/27 11:22:06;;;;;;;7.93;3.58;;;;;;;8.86;55.25;99044.72;4962857;28;20474;-78
2024/01/27 11:24:31;;;;;;;9.50;5.80;;;;;;;8.97;55.01;99049.41;4962287;28;20022;-79
2024/01/27 11:27:02;;;;;;;5.85;3.88;;;;;;;9.26;54.48;99043.25;4952404;28;20160;-78
2024/01/27 11:29:29;;;;;;;6.35;3.05;;;;;;;9.41;53.78;99035.34;4967558;28;20042;-79
2024/01/27 11:31:56;;;;;;;4.45;2.13;;;;;;;9.54;52.82;99043.25;4963031;28;20043;-79
2024/01/27 11:34:21;;;;;;;5.13;2.17;;;;;;;9.59;52.09;99044.44;4970138;28;20139;-78